createdAt,value
2018-08-09T00:03:26.942Z,21.40
2018-08-09T00:08:29.920Z,21.60
2018-08-09T00:13:32.903Z,21.60
2018-08-09T00:18:36.154Z,21.30
2018-08-09T00:23:39.246Z,20.80
2018-08-09T00:28:42.215Z,20.60
2018-08-09T00:33:45.297Z,20.80
2018-08-09T00:38:48.395Z,20.80
2018-08-09T00:43:51.408Z,21.10
2018-08-09T00:48:54.387Z,20.90
2018-08-09T00:53:57.471Z,20.90
2018-08-09T00:59:00.437Z,20.90
2018-08-09T01:04:03.583Z,20.90
2018-08-09T01:09:08.578Z,20.90
2018-08-09T01:14:11.633Z,20.60
2018-08-09T01:19:14.718Z,20.60
2018-08-09T01:24:17.757Z,20.50
2018-08-09T01:29:20.796Z,20.70
2018-08-09T01:34:24.032Z,20.90
2018-08-09T01:39:27.279Z,20.80
2018-08-09T01:44:30.252Z,20.80
2018-08-09T01:49:33.355Z,20.90
2018-08-09T01:54:36.419Z,20.80
2018-08-09T01:59:39.619Z,21.10
2018-08-09T02:04:42.841Z,21.30
2018-08-09T02:09:46.042Z,21.30
2018-08-09T02:14:49.037Z,21.40
2018-08-09T02:19:52.023Z,21.30
2018-08-09T02:24:55.142Z,21.30
2018-08-09T02:29:58.115Z,21.10
2018-08-09T02:35:01.079Z,20.70
2018-08-09T02:40:04.786Z,19.90
2018-08-09T02:45:07.791Z,19.80
2018-08-09T02:50:11.007Z,19.60
2018-08-09T02:55:14.031Z,19.60
2018-08-09T03:00:17.120Z,19.70
2018-08-09T03:05:20.111Z,19.90
2018-08-09T03:10:23.111Z,20.00
2018-08-09T03:15:26.085Z,19.90
2018-08-09T03:20:29.303Z,20.00
2018-08-09T03:25:32.301Z,20.20
2018-08-09T03:30:35.551Z,20.00
2018-08-09T03:35:38.548Z,20.10
2018-08-09T03:40:41.779Z,20.50
2018-08-09T03:45:44.970Z,20.60
2018-08-09T03:50:48.111Z,20.50
2018-08-09T03:55:51.076Z,20.50
2018-08-09T04:00:54.100Z,20.40
2018-08-09T04:05:57.271Z,20.30
2018-08-09T04:11:00.226Z,20.30
2018-08-09T04:16:03.524Z,20.20
2018-08-09T04:21:06.572Z,19.90
2018-08-09T04:26:09.791Z,19.80
2018-08-09T04:31:13.024Z,19.80
2018-08-09T04:36:16.094Z,19.80
2018-08-09T04:41:19.120Z,19.90
2018-08-09T04:46:22.248Z,20.20
2018-08-09T04:51:25.258Z,20.50
2018-08-09T04:56:28.540Z,20.50
2018-08-09T05:01:31.865Z,20.70
2018-08-09T05:06:35.066Z,21.20
2018-08-09T05:11:38.474Z,21.20
2018-08-09T05:16:41.475Z,21.10
2018-08-09T05:21:44.677Z,21.30
2018-08-09T05:26:47.666Z,22.40
2018-08-09T05:31:50.699Z,22.50
2018-08-09T05:36:53.791Z,23.80
2018-08-09T05:41:57.126Z,24.50
2018-08-09T05:47:00.371Z,25.00
2018-08-09T05:57:06.582Z,25.20
2018-08-09T06:02:09.824Z,25.90
2018-08-09T06:07:12.823Z,25.60
2018-08-09T06:12:16.168Z,25.20
2018-08-09T06:17:19.360Z,25.50
2018-08-09T06:22:22.791Z,26.60
2018-08-09T06:27:25.979Z,27.30
2018-08-09T06:32:29.302Z,26.60
2018-08-09T06:37:32.267Z,26.70
2018-08-09T06:42:35.285Z,27.00
2018-08-09T06:47:38.772Z,26.60
2018-08-09T06:52:42.429Z,27.10
2018-08-09T06:57:45.752Z,28.10
2018-08-09T07:02:48.776Z,27.40
2018-08-09T07:07:52.100Z,27.40
2018-08-09T07:12:55.183Z,27.50
2018-08-09T07:17:58.205Z,27.50
2018-08-09T07:23:01.392Z,27.10
2018-08-09T07:28:05.872Z,26.70
2018-08-09T07:33:08.879Z,26.70
2018-08-09T07:38:12.232Z,26.50
2018-08-09T07:43:15.377Z,26.80
2018-08-09T07:48:18.457Z,26.20
2018-08-09T07:53:21.513Z,26.40
2018-08-09T07:58:24.671Z,26.10
2018-08-09T08:03:27.679Z,25.90
2018-08-09T08:08:30.838Z,26.10
2018-08-09T08:13:33.987Z,26.20
2018-08-09T08:18:37.404Z,26.10
2018-08-09T08:23:40.469Z,26.30
2018-08-09T08:28:43.811Z,26.20
2018-08-09T08:33:46.825Z,26.00
2018-08-09T08:38:50.046Z,25.90
2018-08-09T08:43:53.337Z,25.90
2018-08-09T08:48:56.543Z,26.30
2018-08-09T08:53:59.552Z,26.50
2018-08-09T08:59:02.720Z,26.70
2018-08-09T09:04:05.843Z,26.80
2018-08-09T09:09:11.901Z,26.80
2018-08-09T09:14:15.178Z,27.10
2018-08-09T09:19:18.350Z,27.50
2018-08-09T09:24:21.360Z,28.10
2018-08-09T09:29:24.426Z,28.60
2018-08-09T09:34:27.507Z,29.60
2018-08-09T09:39:30.580Z,29.20
2018-08-09T09:44:33.793Z,29.20
2018-08-09T09:49:36.999Z,30.70
2018-08-09T09:54:40.007Z,31.30
2018-08-09T09:59:43.268Z,30.50
2018-08-09T10:04:46.528Z,30.40
2018-08-09T10:09:49.504Z,30.60
2018-08-09T10:14:52.569Z,31.20
2018-08-09T10:19:55.911Z,31.00
2018-08-09T10:24:59.104Z,31.30
2018-08-09T10:30:02.359Z,30.90
2018-08-09T10:35:05.879Z,31.10
2018-08-09T10:40:08.919Z,31.40
2018-08-09T10:45:12.037Z,31.90
2018-08-09T10:50:15.204Z,31.90
2018-08-09T10:55:18.219Z,31.60
2018-08-09T11:00:21.326Z,32.10
2018-08-09T11:05:24.365Z,31.90
2018-08-09T11:10:27.627Z,32.30
2018-08-09T11:15:30.831Z,32.10
2018-08-09T11:20:33.961Z,32.70
2018-08-09T11:25:37.001Z,32.90
2018-08-09T11:30:40.051Z,32.70
2018-08-09T11:35:43.033Z,32.80
2018-08-09T11:40:46.273Z,32.80
2018-08-09T11:45:49.272Z,32.90
2018-08-09T11:50:52.530Z,33.30
2018-08-09T11:55:56.333Z,33.10
2018-08-09T12:00:59.507Z,33.20
2018-08-09T12:06:02.731Z,33.50
2018-08-09T12:11:05.812Z,34.10
2018-08-09T12:16:09.010Z,33.90
2018-08-09T12:21:12.376Z,34.20
2018-08-09T12:26:15.692Z,34.00
2018-08-09T12:31:19.007Z,34.10
2018-08-09T12:36:22.197Z,34.10
2018-08-09T12:41:25.254Z,34.10
2018-08-09T12:46:28.412Z,34.00
2018-08-09T12:51:31.725Z,33.80
2018-08-09T12:56:35.107Z,33.70
2018-08-09T13:01:38.319Z,33.60
2018-08-09T13:06:41.415Z,33.40
2018-08-09T13:11:44.745Z,32.00
2018-08-09T13:16:48.014Z,27.30
2018-08-09T13:21:51.653Z,26.00
2018-08-09T13:26:54.760Z,25.00
2018-08-09T13:31:57.864Z,24.10
2018-08-09T13:37:00.956Z,22.10
2018-08-09T13:42:04.044Z,22.00
2018-08-09T13:47:07.244Z,22.10
2018-08-09T13:52:10.716Z,21.70
2018-08-09T13:57:13.851Z,21.80
2018-08-09T14:02:16.969Z,21.60
2018-08-09T14:07:20.055Z,21.90
2018-08-09T14:12:23.252Z,22.20
2018-08-09T14:17:26.443Z,23.00
2018-08-09T14:22:29.799Z,23.40
2018-08-09T14:27:33.040Z,23.60
2018-08-09T14:32:36.385Z,23.60
2018-08-09T14:37:40.419Z,23.30
2018-08-09T14:42:43.831Z,23.50
2018-08-09T14:47:47.123Z,23.50
2018-08-09T14:52:50.344Z,23.60
2018-08-09T14:57:53.677Z,23.70
2018-08-09T15:02:56.900Z,23.90
2018-08-09T15:08:00.996Z,24.20
2018-08-09T15:13:04.193Z,24.90
2018-08-09T15:18:07.240Z,25.00
2018-08-09T15:23:10.289Z,24.70
2018-08-09T15:28:13.356Z,24.70
2018-08-09T15:33:16.399Z,24.80
2018-08-09T15:38:19.975Z,25.10
2018-08-09T15:43:23.172Z,25.00
2018-08-09T15:48:26.161Z,25.00
2018-08-09T15:53:29.665Z,25.20
2018-08-09T15:58:32.881Z,25.30
2018-08-09T16:03:36.228Z,25.10
2018-08-09T16:08:39.623Z,25.20
2018-08-09T16:13:43.124Z,25.30
2018-08-09T16:18:46.380Z,25.30
2018-08-09T16:23:49.777Z,25.20
2018-08-09T16:28:52.909Z,24.90
2018-08-09T16:33:56.606Z,25.00
2018-08-09T16:38:59.988Z,25.00
2018-08-09T16:44:03.198Z,24.90
2018-08-09T16:49:06.569Z,24.90
2018-08-09T16:54:10.050Z,25.00
2018-08-09T16:59:13.174Z,25.00
2018-08-09T17:04:16.288Z,24.90
2018-08-09T17:09:19.554Z,24.90
2018-08-09T17:14:22.630Z,25.00
2018-08-09T17:19:25.797Z,24.90
2018-08-09T17:24:28.994Z,24.90
2018-08-09T17:29:32.152Z,24.80
2018-08-09T17:34:35.359Z,24.80
2018-08-09T17:39:38.482Z,24.60
2018-08-09T17:44:41.707Z,24.90
2018-08-09T17:49:45.123Z,24.90
2018-08-09T17:54:48.570Z,25.30
2018-08-09T17:59:52.284Z,24.80
2018-08-09T18:04:55.370Z,25.10
2018-08-09T18:09:58.698Z,24.40
2018-08-09T18:15:01.806Z,24.30
2018-08-09T18:20:09.932Z,24.20
2018-08-09T18:25:14.033Z,24.10
2018-08-09T18:30:18.432Z,24.10
2018-08-09T18:35:21.805Z,24.00
2018-08-09T18:40:26.645Z,24.00
2018-08-09T18:45:29.779Z,24.00
2018-08-09T18:50:33.266Z,23.90
2018-08-09T18:55:36.599Z,23.60
2018-08-09T19:00:39.972Z,23.60
2018-08-09T19:05:43.406Z,23.50
2018-08-09T19:10:46.542Z,23.50
2018-08-09T19:15:49.629Z,23.60
2018-08-09T19:20:53.335Z,23.50
2018-08-09T19:25:56.427Z,23.40
2018-08-09T19:30:59.936Z,23.40
2018-08-09T19:36:03.212Z,23.30
2018-08-09T19:41:07.202Z,23.30
2018-08-09T19:46:10.753Z,23.20
2018-08-09T19:51:14.117Z,23.20
2018-08-09T19:56:17.452Z,23.00
2018-08-09T20:01:20.599Z,23.00
2018-08-09T20:06:23.963Z,22.90
2018-08-09T20:11:27.375Z,22.90
2018-08-09T20:16:30.527Z,22.90
2018-08-09T20:21:33.706Z,22.80
2018-08-09T20:26:37.071Z,22.60
2018-08-09T20:31:40.488Z,22.60
2018-08-09T20:36:43.976Z,22.60
2018-08-09T20:41:47.454Z,22.50
2018-08-09T20:46:50.531Z,22.50
2018-08-09T20:51:53.965Z,22.30
2018-08-09T20:56:57.152Z,22.10
2018-08-09T21:02:00.632Z,21.90
2018-08-09T21:07:03.755Z,22.10
2018-08-09T21:12:06.997Z,22.10
2018-08-09T21:17:10.307Z,22.00
2018-08-09T21:22:13.524Z,21.90
2018-08-09T21:27:16.947Z,21.80
2018-08-09T21:32:20.353Z,21.80
2018-08-09T21:37:23.390Z,21.80
2018-08-09T21:42:26.749Z,21.60
2018-08-09T21:47:30.002Z,21.60
2018-08-09T21:52:33.383Z,21.50
2018-08-09T21:57:36.692Z,21.30
2018-08-09T22:02:39.989Z,21.30
2018-08-09T22:07:49.079Z,21.30
2018-08-09T22:12:57.609Z,21.20
2018-08-09T22:18:06.395Z,20.90
2018-08-09T22:23:09.456Z,20.80
2018-08-09T22:28:12.612Z,20.70
2018-08-09T22:33:15.842Z,20.60
2018-08-09T22:38:18.880Z,20.50
2018-08-09T22:43:21.923Z,20.50
2018-08-09T22:48:25.078Z,20.40
2018-08-09T22:53:28.142Z,20.30
2018-08-09T22:58:31.643Z,20.10
2018-08-09T23:03:35.130Z,20.10
2018-08-09T23:08:38.343Z,20.00
2018-08-09T23:13:41.392Z,19.90
2018-08-09T23:18:44.727Z,19.90
2018-08-09T23:23:48.268Z,19.90
2018-08-09T23:28:51.527Z,19.90
2018-08-09T23:33:54.633Z,20.00
2018-08-09T23:38:57.647Z,19.90
2018-08-09T23:44:00.648Z,19.90
2018-08-09T23:49:03.893Z,19.90
2018-08-09T23:54:07.186Z,19.80
2018-08-09T23:59:10.300Z,19.70
